createdAt,value
2023-03-27T00:01:17.923Z,1.20
2023-03-27T00:03:49.556Z,0.60
2023-03-27T00:06:19.366Z,0.43
2023-03-27T00:08:48.635Z,0.97
2023-03-27T00:11:17.030Z,0.43
2023-03-27T00:13:50.085Z,1.10
2023-03-27T00:16:19.034Z,0.90
2023-03-27T00:18:47.006Z,0.63
2023-03-27T00:21:15.300Z,0.97
2023-03-27T00:23:43.271Z,0.73
2023-03-27T00:26:12.081Z,0.87
2023-03-27T00:28:40.030Z,0.70
2023-03-27T00:31:12.548Z,0.70
2023-03-27T00:33:41.063Z,1.00
2023-03-27T00:36:09.721Z,0.60
2023-03-27T00:38:39.548Z,0.77
2023-03-27T00:41:08.599Z,0.70
2023-03-27T00:43:37.389Z,1.07
2023-03-27T00:46:09.539Z,0.80
2023-03-27T00:48:38.982Z,0.90
2023-03-27T00:51:07.992Z,0.90
2023-03-27T00:53:36.118Z,0.80
2023-03-27T00:56:06.516Z,0.80
2023-03-27T00:58:38.524Z,0.57
2023-03-27T01:01:08.776Z,0.60
2023-03-27T01:03:38.096Z,0.47
2023-03-27T01:06:06.357Z,0.43
2023-03-27T01:08:37.653Z,0.27
2023-03-27T01:11:15.808Z,0.20
2023-03-27T01:13:57.991Z,0.27
2023-03-27T01:16:31.584Z,0.20
2023-03-27T01:19:21.677Z,0.20
2023-03-27T01:22:25.090Z,0.20
2023-03-27T01:25:23.867Z,0.17
2023-03-27T01:28:22.791Z,0.37
2023-03-27T01:30:57.647Z,0.40
2023-03-27T01:33:40.606Z,0.20
2023-03-27T01:36:39.757Z,0.30
2023-03-27T01:39:28.602Z,0.50
2023-03-27T01:42:04.439Z,0.63
2023-03-27T01:44:43.490Z,0.30
2023-03-27T01:47:22.285Z,0.53
2023-03-27T01:49:55.622Z,0.40
2023-03-27T01:52:29.280Z,0.60
2023-03-27T01:55:03.415Z,0.70
2023-03-27T01:57:36.871Z,0.90
2023-03-27T02:00:21.918Z,0.70
2023-03-27T02:02:55.254Z,0.57
2023-03-27T02:05:29.429Z,0.40
2023-03-27T02:08:04.036Z,0.60
2023-03-27T02:10:38.214Z,0.70
2023-03-27T02:13:10.451Z,0.60
2023-03-27T02:15:41.846Z,0.60
2023-03-27T02:18:13.706Z,0.60
2023-03-27T02:20:43.198Z,0.43
2023-03-27T02:23:11.812Z,0.50
2023-03-27T02:25:42.188Z,0.67
2023-03-27T02:28:35.162Z,0.30
2023-03-27T02:31:32.732Z,0.13
2023-03-27T02:34:22.540Z,0.30
2023-03-27T02:36:56.775Z,0.33
2023-03-27T02:39:33.782Z,0.43
2023-03-27T02:42:14.234Z,0.33
2023-03-27T02:44:51.625Z,0.30
2023-03-27T02:47:27.068Z,0.30
2023-03-27T02:49:59.624Z,0.40
2023-03-27T02:52:32.123Z,0.40
2023-03-27T02:55:06.354Z,0.37
2023-03-27T02:57:39.876Z,0.30
2023-03-27T03:00:25.426Z,0.30
2023-03-27T03:03:00.202Z,0.43
2023-03-27T03:05:28.456Z,0.30
2023-03-27T03:07:58.201Z,0.40
2023-03-27T03:10:27.414Z,0.40
2023-03-27T03:12:56.569Z,0.30
2023-03-27T03:15:24.329Z,0.37
2023-03-27T03:17:52.144Z,0.70
2023-03-27T03:20:19.933Z,0.30
2023-03-27T03:22:47.680Z,0.27
2023-03-27T03:25:15.643Z,0.20
2023-03-27T03:27:44.239Z,0.47
2023-03-27T03:30:17.058Z,0.33
2023-03-27T03:32:47.418Z,0.63
2023-03-27T03:35:15.515Z,0.90
2023-03-27T03:37:43.911Z,0.20
2023-03-27T03:40:12.712Z,0.40
2023-03-27T03:42:45.831Z,0.40
2023-03-27T03:45:15.552Z,0.50
2023-03-27T03:47:43.733Z,0.27
2023-03-27T03:50:12.605Z,0.47
2023-03-27T03:52:40.868Z,0.40
2023-03-27T03:55:11.876Z,0.47
2023-03-27T03:57:40.770Z,0.53
2023-03-27T04:00:12.171Z,0.53
2023-03-27T04:02:41.557Z,0.33
2023-03-27T04:05:10.370Z,0.67
2023-03-27T04:07:40.129Z,0.57
2023-03-27T04:10:09.744Z,0.80
2023-03-27T04:12:37.443Z,0.50
2023-03-27T04:15:05.777Z,0.50
2023-03-27T04:17:33.779Z,0.70
2023-03-27T04:20:06.005Z,0.33
2023-03-27T04:22:38.137Z,0.70
2023-03-27T04:25:07.304Z,0.60
2023-03-27T04:27:35.659Z,0.53
2023-03-27T04:30:03.537Z,0.60
2023-03-27T04:32:31.374Z,0.97
2023-03-27T04:34:59.326Z,0.60
2023-03-27T04:37:28.708Z,0.93
2023-03-27T04:39:56.557Z,0.40
2023-03-27T04:42:24.452Z,0.10
2023-03-27T04:44:53.298Z,0.20
2023-03-27T04:47:21.432Z,0.20
2023-03-27T04:49:51.130Z,0.10
2023-03-27T04:52:19.671Z,0.50
2023-03-27T04:54:48.808Z,0.47
2023-03-27T04:57:19.075Z,0.40
2023-03-27T04:59:47.912Z,0.50
2023-03-27T05:02:16.510Z,0.40
2023-03-27T05:04:44.366Z,0.30
2023-03-27T05:07:12.505Z,0.50
2023-03-27T05:09:40.297Z,0.47
2023-03-27T05:12:10.744Z,0.50
2023-03-27T05:14:38.516Z,0.40
2023-03-27T05:17:06.837Z,0.37
2023-03-27T05:19:35.187Z,0.50
2023-03-27T05:22:05.005Z,0.80
2023-03-27T05:24:32.914Z,0.70
2023-03-27T05:27:00.681Z,0.80
2023-03-27T05:29:30.200Z,0.53
2023-03-27T05:32:14.609Z,0.60
2023-03-27T05:34:42.619Z,0.63
2023-03-27T05:37:10.404Z,0.70
2023-03-27T05:39:38.285Z,0.57
2023-03-27T05:42:06.216Z,0.97
2023-03-27T05:44:35.419Z,0.73
2023-03-27T05:47:03.232Z,0.60
2023-03-27T05:49:32.433Z,0.80
2023-03-27T05:52:01.995Z,0.90
2023-03-27T05:54:29.977Z,0.77
2023-03-27T05:56:57.871Z,0.83
2023-03-27T05:59:25.727Z,0.70
2023-03-27T06:01:55.727Z,0.77
2023-03-27T06:04:23.633Z,0.80
2023-03-27T06:06:51.483Z,0.97
2023-03-27T06:09:19.275Z,1.20
2023-03-27T06:11:47.605Z,1.37
2023-03-27T06:14:15.527Z,1.13
2023-03-27T06:16:43.302Z,0.80
2023-03-27T06:19:12.476Z,1.00
2023-03-27T06:21:41.005Z,1.17
2023-03-27T06:24:09.498Z,0.60
2023-03-27T06:26:37.894Z,0.73
2023-03-27T06:29:08.021Z,1.27
2023-03-27T06:31:38.235Z,0.83
2023-03-27T06:34:06.198Z,1.00
2023-03-27T06:36:35.310Z,1.00
2023-03-27T06:39:06.351Z,0.60
2023-03-27T06:41:34.079Z,0.90
2023-03-27T06:44:02.025Z,0.67
2023-03-27T06:46:42.759Z,0.70
2023-03-27T06:49:12.841Z,0.70
2023-03-27T06:51:42.081Z,0.70
2023-03-27T06:54:09.889Z,0.23
2023-03-27T06:56:37.693Z,1.03
2023-03-27T06:59:05.518Z,0.60
2023-03-27T07:01:33.494Z,0.70
2023-03-27T07:04:01.346Z,0.63
2023-03-27T07:06:29.129Z,0.90
2023-03-27T07:08:58.405Z,0.50
2023-03-27T07:11:27.073Z,0.60
2023-03-27T07:13:54.983Z,0.40
2023-03-27T07:16:22.746Z,0.70
2023-03-27T07:18:50.818Z,1.17
2023-03-27T07:21:18.540Z,0.70
2023-03-27T07:23:46.735Z,0.47
2023-03-27T07:26:15.939Z,0.80
2023-03-27T07:28:44.692Z,0.70
2023-03-27T07:31:25.951Z,0.83
2023-03-27T07:34:00.996Z,0.53
2023-03-27T07:36:28.943Z,0.60
2023-03-27T07:38:56.914Z,0.80
2023-03-27T07:41:26.173Z,0.70
2023-03-27T07:43:54.162Z,0.30
2023-03-27T07:46:23.989Z,0.50
2023-03-27T07:48:51.942Z,0.60
2023-03-27T07:51:19.635Z,0.73
2023-03-27T07:53:49.188Z,0.60
2023-03-27T07:56:16.958Z,0.63
2023-03-27T07:58:46.049Z,0.57
2023-03-27T08:01:14.455Z,0.40
2023-03-27T08:03:42.573Z,0.80
2023-03-27T08:06:13.376Z,0.27
2023-03-27T08:08:41.381Z,0.60
2023-03-27T08:11:19.428Z,0.50
2023-03-27T08:13:56.966Z,0.43
2023-03-27T08:16:27.758Z,0.50
2023-03-27T08:18:55.868Z,0.43
2023-03-27T08:21:23.843Z,0.60
2023-03-27T08:23:51.880Z,0.70
2023-03-27T08:26:20.888Z,0.30
2023-03-27T08:28:48.678Z,0.83
2023-03-27T08:31:18.479Z,0.50
2023-03-27T08:33:46.425Z,0.50
2023-03-27T08:36:15.037Z,0.70
2023-03-27T08:38:43.297Z,0.50
2023-03-27T08:41:25.193Z,0.50
2023-03-27T08:43:56.231Z,0.50
2023-03-27T08:46:29.847Z,0.53
2023-03-27T08:49:01.197Z,0.53
2023-03-27T08:51:32.897Z,0.50
2023-03-27T08:54:07.636Z,0.70
2023-03-27T08:56:35.863Z,0.67
2023-03-27T08:59:03.963Z,0.83
2023-03-27T09:01:41.319Z,0.60
2023-03-27T09:04:21.146Z,0.37
2023-03-27T09:06:58.126Z,0.63
2023-03-27T09:09:36.256Z,0.57
2023-03-27T09:12:14.187Z,0.47
2023-03-27T09:14:46.876Z,0.57
2023-03-27T09:17:22.336Z,0.50
2023-03-27T09:19:54.672Z,0.40
2023-03-27T09:22:25.180Z,0.30
2023-03-27T09:24:56.468Z,0.80
2023-03-27T09:27:27.670Z,0.70
2023-03-27T09:30:15.059Z,0.40
2023-03-27T09:32:44.282Z,0.80
2023-03-27T09:35:15.519Z,0.10
2023-03-27T09:37:43.731Z,0.90
2023-03-27T09:40:23.424Z,1.10
2023-03-27T09:42:54.680Z,0.60
2023-03-27T09:45:24.103Z,0.63
2023-03-27T09:47:59.536Z,0.60
2023-03-27T09:50:32.308Z,0.73
2023-03-27T09:53:09.486Z,0.90
2023-03-27T09:55:49.671Z,0.40
2023-03-27T09:58:25.806Z,0.80
2023-03-27T10:01:08.560Z,0.40
2023-03-27T10:03:42.968Z,0.67
2023-03-27T10:06:14.775Z,0.57
2023-03-27T10:08:46.263Z,0.83
2023-03-27T10:11:17.956Z,0.90
2023-03-27T10:13:47.871Z,0.53
2023-03-27T10:16:18.730Z,0.43
2023-03-27T10:18:51.097Z,0.77
2023-03-27T10:21:27.625Z,0.30
2023-03-27T10:24:02.939Z,0.60
2023-03-27T10:26:33.298Z,0.20
2023-03-27T10:29:07.523Z,0.37
2023-03-27T10:31:38.341Z,0.87
2023-03-27T10:34:28.033Z,0.40
2023-03-27T10:36:56.079Z,0.90
2023-03-27T10:39:28.899Z,0.50
2023-03-27T10:41:57.473Z,0.70
2023-03-27T10:44:28.601Z,0.40
2023-03-27T10:46:57.383Z,0.53
2023-03-27T10:49:33.617Z,0.63
2023-03-27T10:52:15.796Z,0.63
2023-03-27T10:54:46.939Z,0.50
2023-03-27T10:57:18.184Z,0.67
2023-03-27T10:59:52.001Z,0.53
2023-03-27T11:02:24.142Z,0.50
2023-03-27T11:04:57.379Z,0.90
2023-03-27T11:07:33.921Z,0.30
2023-03-27T11:10:07.976Z,0.77
2023-03-27T11:12:38.466Z,0.80
2023-03-27T11:15:14.678Z,0.73
2023-03-27T11:17:47.257Z,0.50
2023-03-27T11:20:25.795Z,0.53
2023-03-27T11:22:59.051Z,0.63
2023-03-27T11:25:36.465Z,0.50
2023-03-27T11:28:13.968Z,0.60
2023-03-27T11:30:46.811Z,0.90
2023-03-27T11:33:29.751Z,0.77
2023-03-27T11:36:08.592Z,0.80
2023-03-27T11:38:39.571Z,1.00
2023-03-27T11:41:08.065Z,0.20
2023-03-27T11:43:38.854Z,1.07
2023-03-27T11:46:22.553Z,0.73
2023-03-27T11:49:08.599Z,0.60
2023-03-27T11:51:57.383Z,0.70
2023-03-27T11:54:39.228Z,0.83
2023-03-27T11:57:15.349Z,0.60
2023-03-27T12:00:04.646Z,0.60
2023-03-27T12:02:52.724Z,0.50
2023-03-27T12:05:28.681Z,0.60
2023-03-27T12:08:08.156Z,0.37
2023-03-27T12:10:38.932Z,0.57
2023-03-27T12:13:41.799Z,0.50
2023-03-27T12:16:23.231Z,0.50
2023-03-27T12:19:08.045Z,0.60
2023-03-27T12:21:54.078Z,0.60
2023-03-27T12:25:01.683Z,0.97
2023-03-27T12:27:44.888Z,0.60
2023-03-27T12:30:27.515Z,0.77
2023-03-27T12:33:20.522Z,0.90
2023-03-27T12:35:52.285Z,0.50
2023-03-27T12:38:28.466Z,0.90
2023-03-27T12:41:06.700Z,0.37
2023-03-27T12:43:41.154Z,0.60
2023-03-27T12:46:14.798Z,1.20
2023-03-27T12:48:56.152Z,0.50
2023-03-27T12:51:38.802Z,0.73
2023-03-27T12:54:24.823Z,0.50
2023-03-27T12:57:05.228Z,0.60
2023-03-27T12:59:36.449Z,0.97
2023-03-27T13:02:33.116Z,0.70
2023-03-27T13:05:26.800Z,0.60
2023-03-27T13:08:08.257Z,0.70
2023-03-27T13:10:47.651Z,0.80
2023-03-27T13:13:39.855Z,0.40
2023-03-27T13:16:24.151Z,0.93
2023-03-27T13:19:19.392Z,1.03
2023-03-27T13:21:58.818Z,1.20
2023-03-27T13:24:44.782Z,1.03
2023-03-27T13:27:31.874Z,0.53
2023-03-27T13:30:01.612Z,0.60
2023-03-27T13:32:35.928Z,0.50
2023-03-27T13:35:32.879Z,0.70
2023-03-27T13:38:00.899Z,0.37
2023-03-27T13:40:34.375Z,0.60
2023-03-27T13:43:10.754Z,0.70
2023-03-27T13:45:47.043Z,0.80
2023-03-27T13:48:45.240Z,0.63
2023-03-27T13:51:50.461Z,0.50
2023-03-27T13:55:06.128Z,0.67
2023-03-27T13:57:58.595Z,0.53
2023-03-27T14:00:47.355Z,0.40
2023-03-27T14:03:52.947Z,0.80
2023-03-27T14:06:57.090Z,0.70
2023-03-27T14:09:39.721Z,0.80
2023-03-27T14:12:15.456Z,0.47
2023-03-27T14:14:58.399Z,0.67
2023-03-27T14:17:42.644Z,0.63
2023-03-27T14:20:25.196Z,0.73
2023-03-27T14:22:56.792Z,1.00
2023-03-27T14:25:34.145Z,0.70
2023-03-27T14:28:02.565Z,0.60
2023-03-27T14:30:33.807Z,0.50
2023-03-27T14:33:09.731Z,0.60
2023-03-27T14:35:39.690Z,0.80
2023-03-27T14:38:16.742Z,0.80
2023-03-27T14:40:47.507Z,0.83
2023-03-27T14:43:18.823Z,0.50
2023-03-27T14:45:48.061Z,0.40
2023-03-27T14:48:22.549Z,0.60
2023-03-27T14:50:53.383Z,0.80
2023-03-27T14:53:26.731Z,0.80
2023-03-27T14:55:56.290Z,0.60
2023-03-27T14:58:26.799Z,0.67
2023-03-27T15:00:59.328Z,0.50
2023-03-27T15:03:35.330Z,0.80
2023-03-27T15:06:05.762Z,0.70
2023-03-27T15:08:37.217Z,0.87
2023-03-27T15:11:12.267Z,0.40
2023-03-27T15:13:40.106Z,0.80
2023-03-27T15:16:11.947Z,0.53
2023-03-27T15:18:53.009Z,0.80
2023-03-27T15:21:34.606Z,0.70
2023-03-27T15:24:10.468Z,0.67
2023-03-27T15:26:38.809Z,0.70
2023-03-27T15:29:13.944Z,0.50
2023-03-27T15:31:44.584Z,0.83
2023-03-27T15:34:23.320Z,0.80
2023-03-27T15:36:56.925Z,0.90
2023-03-27T15:39:26.521Z,0.60
2023-03-27T15:42:03.388Z,0.63
2023-03-27T15:44:32.962Z,0.50
2023-03-27T15:47:01.987Z,0.70
2023-03-27T15:49:33.635Z,0.33
2023-03-27T15:52:22.446Z,0.97
2023-03-27T15:54:54.939Z,0.60
2023-03-27T15:57:23.005Z,0.60
2023-03-27T15:59:53.573Z,0.80
2023-03-27T16:02:25.059Z,0.60
2023-03-27T16:04:57.043Z,0.53
2023-03-27T16:07:29.116Z,0.67
2023-03-27T16:09:59.746Z,0.80
2023-03-27T16:12:32.730Z,0.70
2023-03-27T16:15:05.788Z,0.77
2023-03-27T16:17:41.148Z,0.70
2023-03-27T16:20:35.720Z,0.50
2023-03-27T16:23:04.251Z,0.53
2023-03-27T16:25:32.068Z,0.90
2023-03-27T16:28:00.048Z,0.40
2023-03-27T16:30:30.719Z,0.60
2023-03-27T16:32:59.338Z,0.80
2023-03-27T16:35:27.719Z,0.60
2023-03-27T16:37:57.037Z,0.37
2023-03-27T16:40:24.907Z,0.33
2023-03-27T16:42:52.644Z,0.40
2023-03-27T16:45:20.518Z,0.60
2023-03-27T16:47:51.569Z,0.47
2023-03-27T16:50:22.932Z,0.57
2023-03-27T16:52:50.876Z,0.70
2023-03-27T16:55:22.718Z,0.70
2023-03-27T16:57:52.443Z,0.80
2023-03-27T17:00:20.840Z,0.77
2023-03-27T17:02:48.845Z,0.50
2023-03-27T17:05:17.127Z,0.63
2023-03-27T17:07:46.872Z,0.70
2023-03-27T17:10:15.018Z,0.60
2023-03-27T17:12:44.373Z,0.50
2023-03-27T17:15:12.712Z,0.60
2023-03-27T17:17:40.531Z,0.80
2023-03-27T17:20:08.894Z,0.70
2023-03-27T17:22:36.778Z,0.43
2023-03-27T17:25:06.093Z,0.80
2023-03-27T17:27:34.439Z,0.93
2023-03-27T17:30:04.947Z,0.70
2023-03-27T17:32:32.756Z,0.63
2023-03-27T17:35:00.598Z,0.87
2023-03-27T17:37:28.374Z,0.67
2023-03-27T17:39:56.171Z,0.80
2023-03-27T17:42:24.021Z,0.73
2023-03-27T17:44:51.798Z,0.90
2023-03-27T17:47:21.016Z,0.80
2023-03-27T17:49:48.719Z,0.70
2023-03-27T17:52:16.511Z,0.80
2023-03-27T17:54:44.313Z,0.33
2023-03-27T17:57:12.207Z,0.67
2023-03-27T17:59:39.954Z,0.70
2023-03-27T18:02:08.145Z,0.70
2023-03-27T18:04:37.773Z,0.77
2023-03-27T18:07:05.621Z,0.60
2023-03-27T18:09:33.598Z,0.80
2023-03-27T18:12:01.598Z,0.80
2023-03-27T18:14:29.471Z,0.70
2023-03-27T18:16:57.229Z,0.77
2023-03-27T18:19:25.918Z,0.57
2023-03-27T18:21:55.118Z,0.63
2023-03-27T18:24:22.902Z,0.90
2023-03-27T18:26:50.763Z,0.73
2023-03-27T18:29:21.080Z,0.77
2023-03-27T18:31:49.390Z,0.93
2023-03-27T18:34:17.343Z,0.50
2023-03-27T18:36:50.702Z,0.80
2023-03-27T18:39:20.244Z,0.60
2023-03-27T18:41:48.053Z,0.73
2023-03-27T18:44:16.164Z,0.80
2023-03-27T18:46:44.071Z,0.80
2023-03-27T18:49:23.604Z,0.80
2023-03-27T18:51:52.462Z,0.73
2023-03-27T18:54:21.659Z,0.70
2023-03-27T18:56:49.711Z,0.80
2023-03-27T18:59:18.098Z,0.60
2023-03-27T19:01:46.077Z,0.67
2023-03-27T19:04:16.505Z,0.47
2023-03-27T19:06:46.270Z,0.60
2023-03-27T19:09:14.474Z,0.70
2023-03-27T19:11:44.168Z,0.70
2023-03-27T19:14:12.226Z,0.40
2023-03-27T19:16:40.861Z,0.83
2023-03-27T19:19:08.650Z,0.80
2023-03-27T19:21:36.442Z,0.67
2023-03-27T19:24:04.459Z,0.80
2023-03-27T19:26:35.258Z,0.60
2023-03-27T19:29:04.569Z,0.53
2023-03-27T19:31:32.406Z,0.70
2023-03-27T19:34:00.256Z,0.63
2023-03-27T19:36:28.152Z,0.63
2023-03-27T19:38:55.987Z,0.97
2023-03-27T19:41:24.319Z,0.90
2023-03-27T19:43:52.112Z,0.80
2023-03-27T19:46:23.090Z,0.90
2023-03-27T19:48:51.373Z,0.77
2023-03-27T19:51:19.198Z,0.77
2023-03-27T19:53:47.214Z,0.33
2023-03-27T19:56:14.945Z,0.80
2023-03-27T19:58:42.822Z,0.60
2023-03-27T20:01:11.380Z,1.00
2023-03-27T20:03:41.238Z,1.00
2023-03-27T20:06:13.373Z,1.10
2023-03-27T20:08:42.396Z,0.93
2023-03-27T20:11:10.361Z,1.43
2023-03-27T20:13:53.171Z,1.00
2023-03-27T20:16:24.608Z,1.07
2023-03-27T20:19:03.638Z,1.40
2023-03-27T20:21:33.775Z,0.97
2023-03-27T20:24:01.711Z,1.20
2023-03-27T20:26:32.529Z,1.20
2023-03-27T20:29:00.429Z,1.17
2023-03-27T20:31:28.438Z,1.10
2023-03-27T20:33:57.638Z,0.73
2023-03-27T20:36:25.428Z,1.20
2023-03-27T20:38:53.829Z,0.93
2023-03-27T20:41:21.810Z,0.80
2023-03-27T20:43:51.178Z,1.07
2023-03-27T20:46:19.072Z,0.70
2023-03-27T20:48:54.500Z,0.90
2023-03-27T20:51:25.062Z,0.80
2023-03-27T20:53:55.851Z,0.83
2023-03-27T20:56:24.785Z,0.90
2023-03-27T20:58:52.978Z,1.10
2023-03-27T21:01:20.910Z,0.60
2023-03-27T21:03:49.678Z,0.70
2023-03-27T21:06:20.515Z,0.70
2023-03-27T21:08:49.668Z,0.83
2023-03-27T21:11:17.488Z,1.30
2023-03-27T21:13:45.266Z,1.57
2023-03-27T21:16:13.116Z,1.70
2023-03-27T21:18:40.917Z,1.93
2023-03-27T21:21:08.901Z,1.77
2023-03-27T21:23:37.056Z,1.60
2023-03-27T21:26:06.884Z,1.60
2023-03-27T21:28:35.960Z,2.27
2023-03-27T21:31:07.629Z,2.47
2023-03-27T21:33:36.177Z,2.27
2023-03-27T21:36:04.709Z,1.80
2023-03-27T21:38:32.660Z,1.80
2023-03-27T21:41:02.402Z,1.80
2023-03-27T21:43:32.657Z,1.90
2023-03-27T21:46:02.189Z,1.60
2023-03-27T21:48:30.737Z,1.43
2023-03-27T21:51:02.141Z,1.33
2023-03-27T21:53:30.592Z,1.20
2023-03-27T21:55:58.795Z,1.10
2023-03-27T21:58:27.100Z,1.40
2023-03-27T22:00:58.678Z,1.10
2023-03-27T22:03:27.894Z,0.80
2023-03-27T22:06:10.314Z,1.10
2023-03-27T22:08:40.293Z,0.97
2023-03-27T22:11:08.411Z,1.20
2023-03-27T22:13:37.017Z,0.90
2023-03-27T22:16:10.235Z,1.10
2023-03-27T22:18:38.062Z,1.20
2023-03-27T22:21:17.325Z,1.00
2023-03-27T22:23:45.659Z,1.13
2023-03-27T22:26:13.474Z,0.90
2023-03-27T22:28:41.264Z,1.17
2023-03-27T22:31:10.443Z,0.93
2023-03-27T22:33:38.774Z,0.80
2023-03-27T22:36:10.633Z,0.80
2023-03-27T22:38:39.191Z,0.87
2023-03-27T22:41:09.362Z,1.00
2023-03-27T22:43:37.494Z,0.70
2023-03-27T22:46:06.806Z,1.40
2023-03-27T22:48:36.505Z,0.90
2023-03-27T22:51:04.700Z,1.00
2023-03-27T22:53:33.191Z,0.80
2023-03-27T22:56:01.981Z,0.70
2023-03-27T22:58:30.555Z,0.97
2023-03-27T23:00:59.016Z,0.70
2023-03-27T23:03:28.412Z,0.97
2023-03-27T23:05:57.930Z,1.27
2023-03-27T23:08:28.420Z,0.90
2023-03-27T23:10:57.653Z,0.87
2023-03-27T23:13:26.273Z,0.83
2023-03-27T23:15:54.064Z,1.00
2023-03-27T23:18:24.649Z,0.93
2023-03-27T23:20:58.256Z,1.00
2023-03-27T23:23:27.262Z,0.90
2023-03-27T23:25:55.612Z,0.83
2023-03-27T23:28:23.387Z,1.10
2023-03-27T23:30:55.183Z,1.10
2023-03-27T23:33:25.248Z,0.70
2023-03-27T23:35:54.258Z,1.07
2023-03-27T23:38:23.538Z,1.20
2023-03-27T23:40:56.745Z,1.27
2023-03-27T23:43:24.937Z,1.10
2023-03-27T23:45:52.806Z,0.80
2023-03-27T23:48:20.624Z,1.13
2023-03-27T23:50:48.788Z,1.00
2023-03-27T23:53:17.011Z,1.00
2023-03-27T23:55:46.364Z,1.13
2023-03-27T23:58:14.183Z,0.70
